sensor_id;sensor_type;location;lat;lon;timestamp;pressure;altitude;pressure_sealevel;temperature;humidity
9187;BME280;7273;48.902;9.410;2022-07-11T00:02:14;98667.69;;;16.93;54.31
9187;BME280;7273;48.902;9.410;2022-07-11T00:04:40;98666.56;;;16.94;54.30
9187;BME280;7273;48.902;9.410;2022-07-11T00:07:07;98673.13;;;16.93;54.30
9187;BME280;7273;48.902;9.410;2022-07-11T00:09:33;98667.69;;;16.93;54.29
9187;BME280;7273;48.902;9.410;2022-07-11T00:11:58;98662.19;;;16.80;54.33
9187;BME280;7273;48.902;9.410;2022-07-11T00:14:24;98658.97;;;16.91;54.29
9187;BME280;7273;48.902;9.410;2022-07-11T00:16:51;98656.31;;;16.86;54.30
9187;BME280;7273;48.902;9.410;2022-07-11T00:19:18;98656.72;;;16.80;54.34
9187;BME280;7273;48.902;9.410;2022-07-11T00:21:44;98651.38;;;16.88;54.14
9187;BME280;7273;48.902;9.410;2022-07-11T00:24:09;98657.88;;;16.92;54.27
9187;BME280;7273;48.902;9.410;2022-07-11T00:26:35;98650.56;;;16.88;54.11
9187;BME280;7273;48.902;9.410;2022-07-11T00:29:01;98653.59;;;16.86;54.31
9187;BME280;7273;48.902;9.410;2022-07-11T00:31:26;98657.63;;;16.75;54.84
9187;BME280;7273;48.902;9.410;2022-07-11T00:33:53;98654.78;;;16.67;55.00
9187;BME280;7273;48.902;9.410;2022-07-11T00:36:19;98657.59;;;16.62;55.03
9187;BME280;7273;48.902;9.410;2022-07-11T00:38:44;98650.31;;;16.57;55.30
9187;BME280;7273;48.902;9.410;2022-07-11T00:41:10;98653.22;;;16.47;55.62
9187;BME280;7273;48.902;9.410;2022-07-11T00:43:37;98644.66;;;16.54;55.32
9187;BME280;7273;48.902;9.410;2022-07-11T00:46:04;98644.16;;;16.65;55.08
9187;BME280;7273;48.902;9.410;2022-07-11T00:48:30;98643.56;;;16.68;55.05
9187;BME280;7273;48.902;9.410;2022-07-11T00:50:57;98642.13;;;16.57;55.48
9187;BME280;7273;48.902;9.410;2022-07-11T00:53:23;98644.34;;;16.55;55.38
9187;BME280;7273;48.902;9.410;2022-07-11T00:55:49;98644.25;;;16.60;55.21
9187;BME280;7273;48.902;9.410;2022-07-11T00:58:15;98643.75;;;16.58;55.30
9187;BME280;7273;48.902;9.410;2022-07-11T01:00:41;98645.19;;;16.69;55.06
9187;BME280;7273;48.902;9.410;2022-07-11T01:03:06;98635.66;;;16.67;54.94
9187;BME280;7273;48.902;9.410;2022-07-11T01:05:32;98630.31;;;16.62;55.23
9187;BME280;7273;48.902;9.410;2022-07-11T01:07:57;98629.91;;;16.68;54.91
9187;BME280;7273;48.902;9.410;2022-07-11T01:10:23;98623.34;;;16.37;55.62
9187;BME280;7273;48.902;9.410;2022-07-11T01:12:49;98631.63;;;16.32;55.72
9187;BME280;7273;48.902;9.410;2022-07-11T01:15:15;98629.72;;;16.33;55.68
9187;BME280;7273;48.902;9.410;2022-07-11T01:17:41;98629.28;;;16.26;56.02
9187;BME280;7273;48.902;9.410;2022-07-11T01:20:07;98626.72;;;16.15;56.23
9187;BME280;7273;48.902;9.410;2022-07-11T01:22:36;98629.56;;;16.24;56.06
9187;BME280;7273;48.902;9.410;2022-07-11T01:25:03;98627.66;;;16.25;56.03
9187;BME280;7273;48.902;9.410;2022-07-11T01:27:29;98626.69;;;16.34;55.84
9187;BME280;7273;48.902;9.410;2022-07-11T01:29:55;98629.53;;;16.43;55.54
9187;BME280;7273;48.902;9.410;2022-07-11T01:32:20;98633.00;;;16.48;55.31
9187;BME280;7273;48.902;9.410;2022-07-11T01:34:46;98626.97;;;16.51;55.48
9187;BME280;7273;48.902;9.410;2022-07-11T01:37:12;98625.22;;;16.55;55.48
9187;BME280;7273;48.902;9.410;2022-07-11T01:39:37;98623.31;;;16.56;55.41
9187;BME280;7273;48.902;9.410;2022-07-11T01:42:03;98618.03;;;16.46;55.64
9187;BME280;7273;48.902;9.410;2022-07-11T01:44:29;98621.72;;;16.36;55.84
9187;BME280;7273;48.902;9.410;2022-07-11T01:46:54;98619.31;;;16.35;55.78
9187;BME280;7273;48.902;9.410;2022-07-11T01:49:19;98624.56;;;16.31;55.81
9187;BME280;7273;48.902;9.410;2022-07-11T01:51:45;98630.00;;;16.31;55.87
9187;BME280;7273;48.902;9.410;2022-07-11T01:54:11;98629.50;;;16.29;56.09
9187;BME280;7273;48.902;9.410;2022-07-11T01:56:37;98630.03;;;16.12;56.51
9187;BME280;7273;48.902;9.410;2022-07-11T01:59:02;98637.91;;;16.00;56.96
9187;BME280;7273;48.902;9.410;2022-07-11T02:01:27;98629.72;;;16.00;56.98
9187;BME280;7273;48.902;9.410;2022-07-11T02:03:53;98622.91;;;15.98;57.04
9187;BME280;7273;48.902;9.410;2022-07-11T02:06:20;98624.13;;;15.92;57.12
9187;BME280;7273;48.902;9.410;2022-07-11T02:08:45;98620.28;;;15.93;57.07
9187;BME280;7273;48.902;9.410;2022-07-11T02:11:11;98622.78;;;15.89;57.33
9187;BME280;7273;48.902;9.410;2022-07-11T02:13:36;98622.53;;;16.04;56.98
9187;BME280;7273;48.902;9.410;2022-07-11T02:16:02;98617.53;;;16.11;56.59
9187;BME280;7273;48.902;9.410;2022-07-11T02:18:28;98614.19;;;16.14;56.51
9187;BME280;7273;48.902;9.410;2022-07-11T02:20:53;98618.53;;;16.15;56.56
9187;BME280;7273;48.902;9.410;2022-07-11T02:23:19;98611.38;;;16.20;56.44
9187;BME280;7273;48.902;9.410;2022-07-11T02:25:45;98622.38;;;16.14;56.60
9187;BME280;7273;48.902;9.410;2022-07-11T02:28:12;98617.75;;;16.15;56.66
9187;BME280;7273;48.902;9.410;2022-07-11T02:30:39;98615.47;;;16.03;56.97
9187;BME280;7273;48.902;9.410;2022-07-11T02:33:06;98617.25;;;15.94;57.32
9187;BME280;7273;48.902;9.410;2022-07-11T02:35:36;98616.91;;;15.82;57.56
9187;BME280;7273;48.902;9.410;2022-07-11T02:38:02;98620.25;;;15.79;57.69
9187;BME280;7273;48.902;9.410;2022-07-11T02:40:28;98618.97;;;15.72;57.80
9187;BME280;7273;48.902;9.410;2022-07-11T02:42:54;98616.16;;;15.77;57.64
9187;BME280;7273;48.902;9.410;2022-07-11T02:45:20;98617.78;;;15.78;57.93
9187;BME280;7273;48.902;9.410;2022-07-11T02:47:46;98618.28;;;15.80;57.77
9187;BME280;7273;48.902;9.410;2022-07-11T02:50:12;98624.19;;;15.87;57.78
9187;BME280;7273;48.902;9.410;2022-07-11T02:52:40;98610.69;;;15.95;57.48
9187;BME280;7273;48.902;9.410;2022-07-11T02:55:07;98619.59;;;16.01;57.60
9187;BME280;7273;48.902;9.410;2022-07-11T02:57:33;98614.44;;;15.99;57.62
9187;BME280;7273;48.902;9.410;2022-07-11T02:59:58;98631.63;;;16.00;57.63
9187;BME280;7273;48.902;9.410;2022-07-11T03:02:24;98617.09;;;16.04;57.48
9187;BME280;7273;48.902;9.410;2022-07-11T03:04:50;98622.69;;;16.13;57.45
9187;BME280;7273;48.902;9.410;2022-07-11T03:07:15;98630.19;;;16.21;57.23
9187;BME280;7273;48.902;9.410;2022-07-11T03:09:41;98630.41;;;16.25;57.00
9187;BME280;7273;48.902;9.410;2022-07-11T03:12:07;98616.44;;;16.26;56.97
9187;BME280;7273;48.902;9.410;2022-07-11T03:14:32;98622.13;;;16.30;56.94
9187;BME280;7273;48.902;9.410;2022-07-11T03:16:58;98623.22;;;16.29;56.98
9187;BME280;7273;48.902;9.410;2022-07-11T03:19:23;98620.22;;;16.30;56.85
9187;BME280;7273;48.902;9.410;2022-07-11T03:21:49;98620.00;;;16.27;56.97
9187;BME280;7273;48.902;9.410;2022-07-11T03:24:14;98619.41;;;16.30;57.20
9187;BME280;7273;48.902;9.410;2022-07-11T03:26:39;98617.47;;;16.30;57.02
9187;BME280;7273;48.902;9.410;2022-07-11T03:29:05;98613.94;;;16.30;57.21
9187;BME280;7273;48.902;9.410;2022-07-11T03:31:33;98611.22;;;16.30;57.31
9187;BME280;7273;48.902;9.410;2022-07-11T03:33:58;98619.56;;;16.20;57.79
9187;BME280;7273;48.902;9.410;2022-07-11T03:36:24;98614.31;;;16.23;57.73
9187;BME280;7273;48.902;9.410;2022-07-11T03:38:49;98617.56;;;16.25;57.60
9187;BME280;7273;48.902;9.410;2022-07-11T03:41:15;98616.97;;;16.28;57.75
9187;BME280;7273;48.902;9.410;2022-07-11T03:43:40;98621.53;;;16.33;57.46
9187;BME280;7273;48.902;9.410;2022-07-11T03:46:06;98622.34;;;16.33;57.40
9187;BME280;7273;48.902;9.410;2022-07-11T03:48:32;98622.81;;;16.35;57.27
9187;BME280;7273;48.902;9.410;2022-07-11T03:50:57;98624.84;;;16.30;57.37
9187;BME280;7273;48.902;9.410;2022-07-11T03:53:23;98626.38;;;16.36;57.08
9187;BME280;7273;48.902;9.410;2022-07-11T03:55:48;98622.81;;;16.35;57.08
9187;BME280;7273;48.902;9.410;2022-07-11T03:58:14;98626.25;;;16.27;57.35
9187;BME280;7273;48.902;9.410;2022-07-11T04:00:39;98623.81;;;16.26;57.76
9187;BME280;7273;48.902;9.410;2022-07-11T04:03:04;98617.66;;;16.34;57.41
9187;BME280;7273;48.902;9.410;2022-07-11T04:05:30;98620.63;;;16.37;57.40
9187;BME280;7273;48.902;9.410;2022-07-11T04:07:56;98619.53;;;16.38;57.50
9187;BME280;7273;48.902;9.410;2022-07-11T04:10:22;98618.41;;;16.39;57.47
9187;BME280;7273;48.902;9.410;2022-07-11T04:12:47;98620.63;;;16.37;57.50
9187;BME280;7273;48.902;9.410;2022-07-11T04:15:12;98617.97;;;16.32;57.83
9187;BME280;7273;48.902;9.410;2022-07-11T04:17:38;98614.63;;;16.35;57.87
9187;BME280;7273;48.902;9.410;2022-07-11T04:20:04;98614.84;;;16.39;57.94
9187;BME280;7273;48.902;9.410;2022-07-11T04:22:30;98624.84;;;16.30;58.11
9187;BME280;7273;48.902;9.410;2022-07-11T04:24:56;98620.16;;;16.17;58.36
9187;BME280;7273;48.902;9.410;2022-07-11T04:27:21;98618.72;;;16.05;58.75
9187;BME280;7273;48.902;9.410;2022-07-11T04:29:47;98616.75;;;16.25;58.39
9187;BME280;7273;48.902;9.410;2022-07-11T04:32:13;98621.81;;;16.31;58.38
9187;BME280;7273;48.902;9.410;2022-07-11T04:34:38;98617.66;;;16.34;58.31
9187;BME280;7273;48.902;9.410;2022-07-11T04:37:04;98613.25;;;16.38;58.02
9187;BME280;7273;48.902;9.410;2022-07-11T04:39:30;98616.97;;;16.42;58.08
9187;BME280;7273;48.902;9.410;2022-07-11T04:41:57;98614.75;;;16.44;57.89
9187;BME280;7273;48.902;9.410;2022-07-11T04:44:23;98622.69;;;16.45;57.90
9187;BME280;7273;48.902;9.410;2022-07-11T04:46:48;98612.78;;;16.49;57.93
9187;BME280;7273;48.902;9.410;2022-07-11T04:49:14;98620.69;;;16.51;57.86
9187;BME280;7273;48.902;9.410;2022-07-11T04:51:40;98622.91;;;16.49;58.17
9187;BME280;7273;48.902;9.410;2022-07-11T04:54:05;98626.66;;;16.53;58.26
9187;BME280;7273;48.902;9.410;2022-07-11T04:56:30;98630.19;;;16.53;58.23
9187;BME280;7273;48.902;9.410;2022-07-11T04:58:56;98622.72;;;16.59;58.32
9187;BME280;7273;48.902;9.410;2022-07-11T05:01:21;98627.25;;;16.63;58.27
9187;BME280;7273;48.902;9.410;2022-07-11T05:03:47;98624.13;;;16.70;58.24
9187;BME280;7273;48.902;9.410;2022-07-11T05:06:12;98619.50;;;16.70;58.10
9187;BME280;7273;48.902;9.410;2022-07-11T05:08:38;98616.97;;;16.74;58.21
9187;BME280;7273;48.902;9.410;2022-07-11T05:11:03;98619.28;;;16.80;57.93
9187;BME280;7273;48.902;9.410;2022-07-11T05:13:30;98616.25;;;16.82;57.80
9187;BME280;7273;48.902;9.410;2022-07-11T05:15:56;98621.50;;;16.78;58.19
9187;BME280;7273;48.902;9.410;2022-07-11T05:18:21;98630.91;;;16.86;58.06
9187;BME280;7273;48.902;9.410;2022-07-11T05:20:47;98634.47;;;16.86;58.27
9187;BME280;7273;48.902;9.410;2022-07-11T05:23:14;98637.72;;;16.88;58.22
9187;BME280;7273;48.902;9.410;2022-07-11T05:25:39;98632.75;;;16.90;58.33
9187;BME280;7273;48.902;9.410;2022-07-11T05:28:04;98634.28;;;16.96;58.08
9187;BME280;7273;48.902;9.410;2022-07-11T05:30:30;98639.53;;;16.93;58.23
9187;BME280;7273;48.902;9.410;2022-07-11T05:32:55;98639.44;;;16.98;58.16
9187;BME280;7273;48.902;9.410;2022-07-11T05:35:21;98643.81;;;16.99;58.25
9187;BME280;7273;48.902;9.410;2022-07-11T05:37:47;98639.75;;;16.96;58.40
9187;BME280;7273;48.902;9.410;2022-07-11T05:40:12;98650.38;;;16.98;58.52
9187;BME280;7273;48.902;9.410;2022-07-11T05:42:37;98644.41;;;17.09;58.49
9187;BME280;7273;48.902;9.410;2022-07-11T05:45:03;98654.72;;;17.12;58.32
9187;BME280;7273;48.902;9.410;2022-07-11T05:47:28;98660.06;;;17.17;58.47
9187;BME280;7273;48.902;9.410;2022-07-11T05:49:54;98648.84;;;17.19;58.52
9187;BME280;7273;48.902;9.410;2022-07-11T05:52:19;98656.94;;;17.24;58.54
9187;BME280;7273;48.902;9.410;2022-07-11T05:54:44;98651.97;;;17.26;58.43
9187;BME280;7273;48.902;9.410;2022-07-11T05:57:10;98657.03;;;17.32;58.39
9187;BME280;7273;48.902;9.410;2022-07-11T05:59:35;98657.56;;;17.34;58.48
9187;BME280;7273;48.902;9.410;2022-07-11T06:02:02;98657.94;;;17.41;58.04
9187;BME280;7273;48.902;9.410;2022-07-11T06:04:28;98655.69;;;17.43;58.33
9187;BME280;7273;48.902;9.410;2022-07-11T06:06:53;98663.31;;;17.47;58.63
9187;BME280;7273;48.902;9.410;2022-07-11T06:09:19;98653.91;;;17.53;58.58
9187;BME280;7273;48.902;9.410;2022-07-11T06:11:44;98656.53;;;17.58;58.62
9187;BME280;7273;48.902;9.410;2022-07-11T06:14:09;98648.50;;;17.61;58.35
9187;BME280;7273;48.902;9.410;2022-07-11T06:16:35;98654.38;;;17.55;58.64
9187;BME280;7273;48.902;9.410;2022-07-11T06:19:01;98644.88;;;17.66;58.39
9187;BME280;7273;48.902;9.410;2022-07-11T06:21:27;98650.53;;;17.69;58.44
9187;BME280;7273;48.902;9.410;2022-07-11T06:23:54;98648.16;;;17.76;58.39
9187;BME280;7273;48.902;9.410;2022-07-11T06:26:22;98648.03;;;17.81;58.55
9187;BME280;7273;48.902;9.410;2022-07-11T06:28:47;98653.41;;;17.86;58.55
9187;BME280;7273;48.902;9.410;2022-07-11T06:31:13;98647.31;;;17.89;58.59
9187;BME280;7273;48.902;9.410;2022-07-11T06:33:39;98645.38;;;17.90;58.57
9187;BME280;7273;48.902;9.410;2022-07-11T06:36:05;98649.19;;;18.02;58.41
9187;BME280;7273;48.902;9.410;2022-07-11T06:38:31;98644.84;;;18.01;58.23
9187;BME280;7273;48.902;9.410;2022-07-11T06:40:57;98650.00;;;18.03;58.17
9187;BME280;7273;48.902;9.410;2022-07-11T06:43:23;98648.28;;;18.07;58.20
9187;BME280;7273;48.902;9.410;2022-07-11T06:45:48;98645.56;;;18.15;58.13
9187;BME280;7273;48.902;9.410;2022-07-11T06:48:14;98652.25;;;18.23;57.99
9187;BME280;7273;48.902;9.410;2022-07-11T06:50:40;98647.75;;;18.27;57.79
9187;BME280;7273;48.902;9.410;2022-07-11T06:53:06;98640.56;;;18.31;57.79
9187;BME280;7273;48.902;9.410;2022-07-11T06:55:32;98647.50;;;18.37;57.87
9187;BME280;7273;48.902;9.410;2022-07-11T06:57:58;98646.59;;;18.41;57.89
9187;BME280;7273;48.902;9.410;2022-07-11T07:00:24;98645.34;;;18.47;57.53
9187;BME280;7273;48.902;9.410;2022-07-11T07:02:50;98643.59;;;18.51;57.61
9187;BME280;7273;48.902;9.410;2022-07-11T07:05:15;98647.47;;;18.50;57.73
9187;BME280;7273;48.902;9.410;2022-07-11T07:07:41;98644.34;;;18.43;58.08
9187;BME280;7273;48.902;9.410;2022-07-11T07:10:07;98643.66;;;18.60;57.83
9187;BME280;7273;48.902;9.410;2022-07-11T07:12:37;98643.97;;;18.58;58.18
9187;BME280;7273;48.902;9.410;2022-07-11T07:15:03;98644.78;;;18.59;57.98
9187;BME280;7273;48.902;9.410;2022-07-11T07:17:29;98651.94;;;18.68;58.26
9187;BME280;7273;48.902;9.410;2022-07-11T07:19:56;98655.56;;;18.86;57.91
9187;BME280;7273;48.902;9.410;2022-07-11T07:22:22;98650.56;;;18.88;57.94
9187;BME280;7273;48.902;9.410;2022-07-11T07:24:47;98651.25;;;18.94;57.75
9187;BME280;7273;48.902;9.410;2022-07-11T07:27:12;98646.91;;;19.01;57.42
9187;BME280;7273;48.902;9.410;2022-07-11T07:29:38;98644.31;;;18.96;57.68
9187;BME280;7273;48.902;9.410;2022-07-11T07:32:04;98652.91;;;19.03;57.58
9187;BME280;7273;48.902;9.410;2022-07-11T07:34:30;98654.53;;;19.13;57.34
9187;BME280;7273;48.902;9.410;2022-07-11T07:36:55;98651.66;;;19.18;57.26
9187;BME280;7273;48.902;9.410;2022-07-11T07:39:21;98657.13;;;19.18;57.11
9187;BME280;7273;48.902;9.410;2022-07-11T07:41:46;98651.00;;;19.21;57.25
9187;BME280;7273;48.902;9.410;2022-07-11T07:44:12;98657.06;;;19.31;57.10
9187;BME280;7273;48.902;9.410;2022-07-11T07:46:37;98664.31;;;19.36;57.32
9187;BME280;7273;48.902;9.410;2022-07-11T07:49:03;98669.84;;;19.53;57.18
9187;BME280;7273;48.902;9.410;2022-07-11T07:51:29;98662.44;;;19.53;57.27
9187;BME280;7273;48.902;9.410;2022-07-11T07:53:55;98656.00;;;19.66;57.04
9187;BME280;7273;48.902;9.410;2022-07-11T07:56:20;98659.72;;;19.70;57.12
9187;BME280;7273;48.902;9.410;2022-07-11T07:58:46;98643.88;;;19.76;57.35
9187;BME280;7273;48.902;9.410;2022-07-11T08:01:12;98645.03;;;19.92;56.91
9187;BME280;7273;48.902;9.410;2022-07-11T08:03:55;98641.31;;;19.96;56.97
9187;BME280;7273;48.902;9.410;2022-07-11T08:06:21;98637.59;;;20.01;56.81
9187;BME280;7273;48.902;9.410;2022-07-11T08:08:47;98645.19;;;20.13;56.70
9187;BME280;7273;48.902;9.410;2022-07-11T08:11:13;98633.75;;;20.28;56.57
9187;BME280;7273;48.902;9.410;2022-07-11T08:13:38;98635.00;;;20.39;56.87
9187;BME280;7273;48.902;9.410;2022-07-11T08:16:07;98634.16;;;20.55;56.42
9187;BME280;7273;48.902;9.410;2022-07-11T08:18:33;98632.53;;;20.54;56.60
9187;BME280;7273;48.902;9.410;2022-07-11T08:20:59;98641.13;;;20.53;56.62
9187;BME280;7273;48.902;9.410;2022-07-11T08:23:25;98645.47;;;20.62;56.61
9187;BME280;7273;48.902;9.410;2022-07-11T08:25:50;98646.25;;;20.71;56.73
9187;BME280;7273;48.902;9.410;2022-07-11T08:28:16;98649.50;;;20.65;56.83
9187;BME280;7273;48.902;9.410;2022-07-11T08:30:41;98644.94;;;20.77;56.63
9187;BME280;7273;48.902;9.410;2022-07-11T08:33:07;98640.25;;;20.78;56.58
9187;BME280;7273;48.902;9.410;2022-07-11T08:35:32;98637.44;;;20.95;56.11
9187;BME280;7273;48.902;9.410;2022-07-11T08:37:58;98645.38;;;20.88;56.23
9187;BME280;7273;48.902;9.410;2022-07-11T08:40:23;98645.06;;;20.98;55.96
9187;BME280;7273;48.902;9.410;2022-07-11T08:42:49;98642.47;;;21.01;56.01
9187;BME280;7273;48.902;9.410;2022-07-11T08:45:15;98635.47;;;20.95;56.26
9187;BME280;7273;48.902;9.410;2022-07-11T08:47:42;98628.78;;;21.13;56.07
9187;BME280;7273;48.902;9.410;2022-07-11T08:50:10;98633.13;;;21.23;56.11
9187;BME280;7273;48.902;9.410;2022-07-11T08:52:36;98629.66;;;21.34;55.89
9187;BME280;7273;48.902;9.410;2022-07-11T08:55:03;98619.41;;;21.44;55.68
9187;BME280;7273;48.902;9.410;2022-07-11T08:57:36;98618.25;;;21.45;55.45
9187;BME280;7273;48.902;9.410;2022-07-11T09:00:05;98614.44;;;21.58;55.74
9187;BME280;7273;48.902;9.410;2022-07-11T09:02:33;98623.00;;;21.65;55.71
9187;BME280;7273;48.902;9.410;2022-07-11T09:04:59;98618.75;;;21.67;55.59
9187;BME280;7273;48.902;9.410;2022-07-11T09:07:25;98626.16;;;21.75;55.45
9187;BME280;7273;48.902;9.410;2022-07-11T09:09:52;98623.59;;;21.70;55.87
9187;BME280;7273;48.902;9.410;2022-07-11T09:12:18;98630.97;;;21.58;56.06
9187;BME280;7273;48.902;9.410;2022-07-11T09:14:47;98627.81;;;21.68;55.66
9187;BME280;7273;48.902;9.410;2022-07-11T09:17:13;98621.38;;;21.64;55.76
9187;BME280;7273;48.902;9.410;2022-07-11T09:19:39;98615.94;;;21.76;55.58
9187;BME280;7273;48.902;9.410;2022-07-11T09:22:12;98628.44;;;21.73;55.49
9187;BME280;7273;48.902;9.410;2022-07-11T09:25:05;98622.75;;;21.49;55.31
9187;BME280;7273;48.902;9.410;2022-07-11T09:27:54;98629.56;;;21.52;55.47
9187;BME280;7273;48.902;9.410;2022-07-11T09:30:25;98624.00;;;21.60;55.29
9187;BME280;7273;48.902;9.410;2022-07-11T09:35:19;98623.44;;;21.46;55.68
9187;BME280;7273;48.902;9.410;2022-07-11T09:37:44;98626.47;;;21.53;55.47
9187;BME280;7273;48.902;9.410;2022-07-11T09:40:13;98640.47;;;21.69;55.17
9187;BME280;7273;48.902;9.410;2022-07-11T09:42:56;98628.78;;;21.72;55.00
9187;BME280;7273;48.902;9.410;2022-07-11T09:45:24;98625.03;;;21.76;55.20
9187;BME280;7273;48.902;9.410;2022-07-11T09:47:52;98626.72;;;21.89;54.91
9187;BME280;7273;48.902;9.410;2022-07-11T09:50:26;98626.09;;;21.84;54.95
9187;BME280;7273;48.902;9.410;2022-07-11T09:55:26;98635.06;;;22.01;54.52
9187;BME280;7273;48.902;9.410;2022-07-11T09:57:52;98628.97;;;22.28;54.43
9187;BME280;7273;48.902;9.410;2022-07-11T10:00:18;98631.47;;;22.21;54.51
9187;BME280;7273;48.902;9.410;2022-07-11T10:02:44;98631.31;;;22.38;54.52
9187;BME280;7273;48.902;9.410;2022-07-11T10:05:10;98639.75;;;22.54;54.11
9187;BME280;7273;48.902;9.410;2022-07-11T10:07:35;98642.50;;;22.54;54.45
9187;BME280;7273;48.902;9.410;2022-07-11T10:10:04;98629.06;;;22.52;54.15
9187;BME280;7273;48.902;9.410;2022-07-11T10:12:30;98624.50;;;22.69;53.92
9187;BME280;7273;48.902;9.410;2022-07-11T10:15:00;98622.94;;;22.80;53.81
9187;BME280;7273;48.902;9.410;2022-07-11T10:20:39;98621.34;;;22.91;53.68
9187;BME280;7273;48.902;9.410;2022-07-11T10:23:25;98626.53;;;23.04;53.01
9187;BME280;7273;48.902;9.410;2022-07-11T10:26:16;98625.16;;;23.10;53.27
9187;BME280;7273;48.902;9.410;2022-07-11T10:29:01;98622.50;;;23.02;53.51
9187;BME280;7273;48.902;9.410;2022-07-11T10:31:27;98632.28;;;23.11;53.99
9187;BME280;7273;48.902;9.410;2022-07-11T10:34:05;98638.88;;;23.31;53.63
9187;BME280;7273;48.902;9.410;2022-07-11T10:36:33;98632.03;;;23.16;54.00
9187;BME280;7273;48.902;9.410;2022-07-11T10:41:40;98636.09;;;23.19;54.12
9187;BME280;7273;48.902;9.410;2022-07-11T10:49:07;98638.53;;;23.32;53.80
9187;BME280;7273;48.902;9.410;2022-07-11T10:56:56;98631.97;;;23.37;53.87
9187;BME280;7273;48.902;9.410;2022-07-11T10:59:27;98625.06;;;23.55;53.45
9187;BME280;7273;48.902;9.410;2022-07-11T11:02:10;98626.88;;;23.63;52.58
9187;BME280;7273;48.902;9.410;2022-07-11T11:09:56;98619.06;;;23.53;53.79
9187;BME280;7273;48.902;9.410;2022-07-11T11:23:30;98626.19;;;23.66;53.21
9187;BME280;7273;48.902;9.410;2022-07-11T11:26:13;98622.25;;;23.67;52.74
9187;BME280;7273;48.902;9.410;2022-07-11T11:29:04;98608.84;;;23.93;52.07
9187;BME280;7273;48.902;9.410;2022-07-11T11:31:32;98606.38;;;24.16;52.78
9187;BME280;7273;48.902;9.410;2022-07-11T11:33:58;98612.75;;;24.32;52.72
9187;BME280;7273;48.902;9.410;2022-07-11T11:36:25;98614.09;;;24.38;52.71
9187;BME280;7273;48.902;9.410;2022-07-11T11:38:51;98608.06;;;24.48;52.31
9187;BME280;7273;48.902;9.410;2022-07-11T11:41:30;98612.06;;;24.50;51.86
9187;BME280;7273;48.902;9.410;2022-07-11T11:43:57;98616.38;;;24.48;52.64
9187;BME280;7273;48.902;9.410;2022-07-11T11:46:31;98613.19;;;24.61;51.99
9187;BME280;7273;48.902;9.410;2022-07-11T11:49:00;98605.59;;;24.58;52.47
9187;BME280;7273;48.902;9.410;2022-07-11T11:51:30;98603.59;;;24.71;52.12
9187;BME280;7273;48.902;9.410;2022-07-11T11:53:58;98607.19;;;24.59;52.88
9187;BME280;7273;48.902;9.410;2022-07-11T11:56:27;98604.88;;;24.61;52.63
9187;BME280;7273;48.902;9.410;2022-07-11T11:59:03;98603.41;;;24.79;51.93
9187;BME280;7273;48.902;9.410;2022-07-11T12:01:31;98602.69;;;24.82;52.18
9187;BME280;7273;48.902;9.410;2022-07-11T12:04:04;98606.38;;;25.02;51.61
9187;BME280;7273;48.902;9.410;2022-07-11T12:06:42;98609.84;;;24.83;51.66
9187;BME280;7273;48.902;9.410;2022-07-11T12:09:10;98600.00;;;24.70;52.48
9187;BME280;7273;48.902;9.410;2022-07-11T12:11:37;98606.09;;;24.76;52.54
9187;BME280;7273;48.902;9.410;2022-07-11T12:14:05;98605.66;;;24.89;52.03
9187;BME280;7273;48.902;9.410;2022-07-11T12:16:33;98601.09;;;24.97;51.83
9187;BME280;7273;48.902;9.410;2022-07-11T12:19:05;98596.97;;;25.22;51.74
9187;BME280;7273;48.902;9.410;2022-07-11T12:21:35;98600.22;;;25.59;51.72
9187;BME280;7273;48.902;9.410;2022-07-11T12:24:03;98596.53;;;25.70;51.35
9187;BME280;7273;48.902;9.410;2022-07-11T12:26:31;98599.56;;;25.46;52.34
9187;BME280;7273;48.902;9.410;2022-07-11T12:31:52;98604.94;;;25.24;51.99
9187;BME280;7273;48.902;9.410;2022-07-11T12:34:22;98599.75;;;25.06;51.94
9187;BME280;7273;48.902;9.410;2022-07-11T12:36:48;98597.88;;;24.95;52.51
9187;BME280;7273;48.902;9.410;2022-07-11T12:39:28;98590.44;;;25.14;50.27
9187;BME280;7273;48.902;9.410;2022-07-11T12:41:55;98592.88;;;25.00;51.90
9187;BME280;7273;48.902;9.410;2022-07-11T12:44:31;98591.72;;;25.01;51.38
9187;BME280;7273;48.902;9.410;2022-07-11T12:47:16;98586.19;;;25.01;51.65
9187;BME280;7273;48.902;9.410;2022-07-11T12:49:50;98588.44;;;24.96;50.26
9187;BME280;7273;48.902;9.410;2022-07-11T12:52:15;98587.72;;;24.99;51.91
9187;BME280;7273;48.902;9.410;2022-07-11T12:54:42;98585.31;;;24.97;51.77
9187;BME280;7273;48.902;9.410;2022-07-11T12:57:09;98588.81;;;24.67;52.44
9187;BME280;7273;48.902;9.410;2022-07-11T12:59:39;98589.28;;;24.69;51.88
9187;BME280;7273;48.902;9.410;2022-07-11T13:02:09;98590.56;;;24.71;51.59
9187;BME280;7273;48.902;9.410;2022-07-11T13:04:51;98593.25;;;24.40;51.95
9187;BME280;7273;48.902;9.410;2022-07-11T13:10:08;98587.09;;;24.47;51.88
9187;BME280;7273;48.902;9.410;2022-07-11T13:12:33;98592.34;;;24.36;51.85
9187;BME280;7273;48.902;9.410;2022-07-11T13:15:05;98588.75;;;24.36;51.37
9187;BME280;7273;48.902;9.410;2022-07-11T13:17:48;98582.97;;;24.41;51.53
9187;BME280;7273;48.902;9.410;2022-07-11T13:20:25;98585.63;;;24.37;51.68
9187;BME280;7273;48.902;9.410;2022-07-11T13:22:54;98587.38;;;24.42;51.60
9187;BME280;7273;48.902;9.410;2022-07-11T13:25:21;98590.69;;;24.20;51.82
9187;BME280;7273;48.902;9.410;2022-07-11T13:27:47;98588.22;;;24.30;51.63
9187;BME280;7273;48.902;9.410;2022-07-11T13:30:15;98586.72;;;24.33;51.64
9187;BME280;7273;48.902;9.410;2022-07-11T13:32:43;98586.44;;;24.22;51.44
9187;BME280;7273;48.902;9.410;2022-07-11T13:35:09;98587.22;;;24.23;51.47
9187;BME280;7273;48.902;9.410;2022-07-11T13:37:35;98586.31;;;24.19;51.71
9187;BME280;7273;48.902;9.410;2022-07-11T13:40:04;98584.81;;;24.21;51.73
9187;BME280;7273;48.902;9.410;2022-07-11T13:42:30;98581.06;;;24.29;51.58
9187;BME280;7273;48.902;9.410;2022-07-11T13:44:58;98577.22;;;24.18;51.88
9187;BME280;7273;48.902;9.410;2022-07-11T13:47:23;98583.84;;;24.29;51.72
9187;BME280;7273;48.902;9.410;2022-07-11T13:49:49;98579.53;;;24.16;51.96
9187;BME280;7273;48.902;9.410;2022-07-11T13:52:14;98577.34;;;24.37;51.42
9187;BME280;7273;48.902;9.410;2022-07-11T13:54:40;98581.25;;;24.21;51.91
9187;BME280;7273;48.902;9.410;2022-07-11T13:57:05;98578.41;;;24.33;51.40
9187;BME280;7273;48.902;9.410;2022-07-11T13:59:31;98584.28;;;24.31;51.63
9187;BME280;7273;48.902;9.410;2022-07-11T14:01:56;98578.88;;;24.35;51.35
9187;BME280;7273;48.902;9.410;2022-07-11T14:04:22;98578.72;;;24.43;51.19
9187;BME280;7273;48.902;9.410;2022-07-11T14:06:47;98572.91;;;24.48;51.09